Terminal Aerodrome Forecast
Issued by NWS Kansas City/Pleasant Hill, MO

Home | Current Version | Previous Version | Text Only | Print | Product List | Glossary On
Versions: 1 2 3 4 5 6 7 8 9 10 11 12 13 14
000
FTUS43 KEAX 011500 AAA
TAFMCI
TAF AMD
KMCI 011509Z 0115/0212 18014KT P6SM VCSH BKN120
     FM011800 10008KT P6SM SCT100
     FM012200 08009KT P6SM VCTS BKN040CB
     FM020300 09010KT P6SM VCSH BKN025=

USA.gov is the U.S. government's official web portal to all federal, state and local government web resources and services.